createdAt,value
2022-10-10T00:00:58.651Z,1005.14
2022-10-10T00:01:58.637Z,1005.11
2022-10-10T00:02:58.625Z,1005.14
2022-10-10T00:03:58.616Z,1005.15
2022-10-10T00:04:58.608Z,1005.13
2022-10-10T00:05:58.605Z,1005.11
2022-10-10T00:06:58.586Z,1005.1
2022-10-10T00:07:58.581Z,1005.1
2022-10-10T00:08:58.557Z,1005.07
2022-10-10T00:09:58.557Z,1005.1
2022-10-10T00:10:58.545Z,1005.09
2022-10-10T00:11:58.551Z,1005.02
2022-10-10T00:12:58.517Z,1005.11
2022-10-10T00:13:58.506Z,1005.09
2022-10-10T00:14:58.532Z,1005.07
2022-10-10T00:15:58.493Z,1005.07
2022-10-10T00:16:58.512Z,1005.1
2022-10-10T00:17:58.465Z,1005.03
2022-10-10T00:18:58.471Z,1005.1
2022-10-10T00:19:58.443Z,1005.09
2022-10-10T00:20:58.445Z,1005.09
2022-10-10T00:21:58.424Z,1005.05
2022-10-10T00:22:58.411Z,1005.05
2022-10-10T00:23:58.404Z,1005.08
2022-10-10T00:24:58.388Z,1005.05
2022-10-10T00:25:58.380Z,1004.99
2022-10-10T00:26:58.373Z,1005.03
2022-10-10T00:27:58.355Z,1005
2022-10-10T00:28:58.349Z,1004.97
2022-10-10T00:29:58.343Z,1005
2022-10-10T00:30:58.328Z,1005
2022-10-10T00:31:58.314Z,1004.97
2022-10-10T00:32:58.307Z,1004.95
2022-10-10T00:33:58.306Z,1004.98
2022-10-10T00:34:58.282Z,1005.01
2022-10-10T00:35:58.288Z,1004.97
2022-10-10T00:36:58.282Z,1004.97
2022-10-10T00:37:58.299Z,1004.93
2022-10-10T00:38:58.246Z,1005
2022-10-10T00:39:58.230Z,1005
2022-10-10T00:40:58.221Z,1004.94
2022-10-10T00:41:58.206Z,1004.96
2022-10-10T00:42:58.203Z,1004.94
2022-10-10T00:43:58.186Z,1004.96
2022-10-10T00:44:58.173Z,1004.97
2022-10-10T00:45:58.170Z,1004.96
2022-10-10T00:46:58.175Z,1004.86
2022-10-10T00:47:58.149Z,1004.9
2022-10-10T00:48:58.131Z,1004.93
2022-10-10T00:49:58.127Z,1004.93
2022-10-10T00:50:58.127Z,1004.88
2022-10-10T00:51:58.107Z,1004.91
2022-10-10T00:52:58.093Z,1004.87
2022-10-10T00:53:58.081Z,1004.88
2022-10-10T00:54:58.084Z,1004.85
2022-10-10T00:55:58.065Z,1004.89
2022-10-10T00:56:58.051Z,1004.85
2022-10-10T00:57:58.040Z,1004.81
2022-10-10T00:58:58.033Z,1004.88
2022-10-10T00:59:58.018Z,1004.8
2022-10-10T01:00:58.004Z,1004.91
2022-10-10T01:01:58.000Z,1004.9
2022-10-10T01:02:57.986Z,1004.91
2022-10-10T01:03:57.991Z,1004.92
2022-10-10T01:04:57.973Z,1004.92
2022-10-10T01:05:57.952Z,1004.88
2022-10-10T01:06:57.944Z,1004.89
2022-10-10T01:07:57.934Z,1004.9
2022-10-10T01:08:57.925Z,1004.92
2022-10-10T01:09:57.917Z,1004.9
2022-10-10T01:10:57.916Z,1004.82
2022-10-10T01:11:57.891Z,1004.89
2022-10-10T01:12:57.890Z,1004.87
2022-10-10T01:13:57.873Z,1004.82
2022-10-10T01:14:57.865Z,1004.88
2022-10-10T01:15:57.854Z,1004.86
2022-10-10T01:16:57.835Z,1004.88
2022-10-10T01:17:57.827Z,1004.84
2022-10-10T01:18:57.839Z,1004.87
2022-10-10T01:19:57.810Z,1004.82
2022-10-10T01:20:57.795Z,1004.78
2022-10-10T01:21:57.788Z,1004.8
2022-10-10T01:22:57.774Z,1004.79
2022-10-10T01:23:57.775Z,1004.75
2022-10-10T01:24:57.747Z,1004.77
2022-10-10T01:25:57.741Z,1004.71
2022-10-10T01:26:57.730Z,1004.66
2022-10-10T01:27:57.714Z,1004.69
2022-10-10T01:28:57.710Z,1004.75
2022-10-10T01:29:57.696Z,1004.66
2022-10-10T01:30:57.685Z,1004.73
2022-10-10T01:31:57.678Z,1004.64
2022-10-10T01:32:57.668Z,1004.68
2022-10-10T01:33:57.655Z,1004.71
2022-10-10T01:34:57.648Z,1004.64
2022-10-10T01:35:57.660Z,1004.66
2022-10-10T01:36:57.626Z,1004.65
2022-10-10T01:37:57.633Z,1004.66
2022-10-10T01:38:57.643Z,1004.69
2022-10-10T01:39:57.588Z,1004.67
2022-10-10T01:40:57.582Z,1004.64
2022-10-10T01:41:57.577Z,1004.7
2022-10-10T01:42:57.575Z,1004.69
2022-10-10T01:43:57.550Z,1004.65
2022-10-10T01:44:57.536Z,1004.56
2022-10-10T01:45:57.529Z,1004.58
2022-10-10T01:46:57.524Z,1004.64
2022-10-10T01:47:57.508Z,1004.62
2022-10-10T01:48:57.500Z,1004.66
2022-10-10T01:49:57.485Z,1004.57
2022-10-10T01:50:57.479Z,1004.55
2022-10-10T01:51:57.476Z,1004.62
2022-10-10T01:52:57.457Z,1004.6
2022-10-10T01:53:57.453Z,1004.58
2022-10-10T01:54:57.435Z,1004.53
2022-10-10T01:55:57.423Z,1004.57
2022-10-10T01:56:57.467Z,1004.55
2022-10-10T01:57:57.404Z,1004.55
2022-10-10T01:58:57.408Z,1004.55
2022-10-10T01:59:57.380Z,1004.54
2022-10-10T02:00:57.378Z,1004.57
2022-10-10T02:01:57.367Z,1004.57
2022-10-10T02:02:57.344Z,1004.52
2022-10-10T02:03:57.341Z,1004.48
2022-10-10T02:04:57.329Z,1004.49
2022-10-10T02:05:57.335Z,1004.48
2022-10-10T02:06:57.314Z,1004.47
2022-10-10T02:07:57.309Z,1004.45
2022-10-10T02:08:57.279Z,1004.46
2022-10-10T02:09:57.288Z,1004.45
2022-10-10T02:10:57.270Z,1004.47
2022-10-10T02:11:57.251Z,1004.42
2022-10-10T02:12:57.241Z,1004.43
2022-10-10T02:13:57.232Z,1004.32
2022-10-10T02:14:57.244Z,1004.35
2022-10-10T02:15:57.209Z,1004.3
2022-10-10T02:16:57.196Z,1004.35
2022-10-10T02:17:57.192Z,1004.34
2022-10-10T02:18:57.178Z,1004.37
2022-10-10T02:19:57.164Z,1004.3
2022-10-10T02:20:57.163Z,1004.34
2022-10-10T02:21:57.138Z,1004.29
2022-10-10T02:22:57.128Z,1004.32
2022-10-10T02:23:57.122Z,1004.28
2022-10-10T02:24:57.108Z,1004.3
2022-10-10T02:25:57.109Z,1004.29
2022-10-10T02:26:57.087Z,1004.26
2022-10-10T02:27:57.072Z,1004.26
2022-10-10T02:28:57.072Z,1004.27
2022-10-10T02:29:57.069Z,1004.22
2022-10-10T02:30:57.046Z,1004.24
2022-10-10T02:31:57.034Z,1004.29
2022-10-10T02:32:57.054Z,1004.28
2022-10-10T02:33:57.013Z,1004.3
2022-10-10T02:34:57.050Z,1004.24
2022-10-10T02:35:56.987Z,1004.21
2022-10-10T02:36:57.087Z,1004.22
2022-10-10T02:37:57.031Z,1004.23
2022-10-10T02:38:56.956Z,1004.19
2022-10-10T02:39:56.946Z,1004.24
2022-10-10T02:40:56.937Z,1004.26
2022-10-10T02:41:56.927Z,1004.19
2022-10-10T02:42:56.925Z,1004.17
2022-10-10T02:43:56.909Z,1004.17
2022-10-10T02:44:56.904Z,1004.15
2022-10-10T02:45:56.888Z,1004.1
2022-10-10T02:46:56.882Z,1004.15
2022-10-10T02:47:56.870Z,1004.12
2022-10-10T02:48:56.854Z,1004.15
2022-10-10T02:49:56.847Z,1004.15
2022-10-10T02:50:56.827Z,1004.11
2022-10-10T02:51:56.822Z,1004.1
2022-10-10T02:52:56.829Z,1004.06
2022-10-10T02:53:56.801Z,1004.01
2022-10-10T02:54:56.796Z,1004.01
2022-10-10T02:55:56.777Z,1004.08
2022-10-10T02:56:56.765Z,1004.01
2022-10-10T02:57:56.771Z,1004.06
2022-10-10T02:58:56.743Z,1003.94
2022-10-10T02:59:56.731Z,1004.05
2022-10-10T03:00:56.723Z,1003.97
2022-10-10T03:01:56.711Z,1003.98
2022-10-10T03:02:56.714Z,1003.97
2022-10-10T03:03:56.695Z,1003.99
2022-10-10T03:04:56.718Z,1003.97
2022-10-10T03:05:56.714Z,1003.97
2022-10-10T03:06:56.692Z,1004
2022-10-10T03:07:56.645Z,1003.99
2022-10-10T03:08:56.661Z,1003.94
2022-10-10T03:09:56.635Z,1004
2022-10-10T03:10:56.613Z,1003.93
2022-10-10T03:11:56.615Z,1003.86
2022-10-10T03:12:56.599Z,1003.89
2022-10-10T03:13:56.613Z,1003.93
2022-10-10T03:14:56.619Z,1003.89
2022-10-10T03:15:56.591Z,1003.88
2022-10-10T03:16:56.563Z,1003.9
2022-10-10T03:17:56.541Z,1003.86
2022-10-10T03:18:56.531Z,1003.86
2022-10-10T03:19:56.524Z,1003.87
2022-10-10T03:20:56.531Z,1003.89
2022-10-10T03:21:56.517Z,1003.84
2022-10-10T03:22:56.492Z,1003.86
2022-10-10T03:23:56.512Z,1003.93
2022-10-10T03:24:56.465Z,1003.93
2022-10-10T03:25:56.463Z,1003.93
2022-10-10T03:26:56.453Z,1003.92
2022-10-10T03:27:56.469Z,1003.91
2022-10-10T03:28:56.453Z,1003.87
2022-10-10T03:29:56.414Z,1003.84
2022-10-10T03:30:56.408Z,1003.85
2022-10-10T03:31:56.406Z,1003.85
2022-10-10T03:32:56.383Z,1003.84
2022-10-10T03:33:56.371Z,1003.86
2022-10-10T03:34:56.375Z,1003.85
2022-10-10T03:35:56.353Z,1003.8
2022-10-10T03:36:56.349Z,1003.82
2022-10-10T03:37:56.336Z,1003.79
2022-10-10T03:38:56.324Z,1003.78
2022-10-10T03:39:56.310Z,1003.83
2022-10-10T03:40:56.311Z,1003.77
2022-10-10T03:41:56.295Z,1003.73
2022-10-10T03:42:56.279Z,1003.75
2022-10-10T03:43:56.269Z,1003.76
2022-10-10T03:44:56.254Z,1003.74
2022-10-10T03:45:56.254Z,1003.65
2022-10-10T03:46:56.249Z,1003.71
2022-10-10T03:47:56.222Z,1003.72
2022-10-10T03:48:56.220Z,1003.68
2022-10-10T03:49:56.207Z,1003.63
2022-10-10T03:50:56.196Z,1003.7
2022-10-10T03:51:56.181Z,1003.59
2022-10-10T03:52:56.177Z,1003.65
2022-10-10T03:53:56.163Z,1003.67
2022-10-10T03:54:56.150Z,1003.57
2022-10-10T03:55:56.141Z,1003.59
2022-10-10T03:56:56.134Z,1003.57
2022-10-10T03:57:56.125Z,1003.59
2022-10-10T03:58:56.105Z,1003.66
2022-10-10T03:59:56.095Z,1003.66
2022-10-10T04:00:56.087Z,1003.62
2022-10-10T04:01:56.082Z,1003.58
2022-10-10T04:02:56.064Z,1003.58
2022-10-10T04:03:56.057Z,1003.62
2022-10-10T04:04:56.060Z,1003.67
2022-10-10T04:05:56.031Z,1003.54
2022-10-10T04:06:56.025Z,1003.63
2022-10-10T04:07:56.013Z,1003.66
2022-10-10T04:08:56.026Z,1003.58
2022-10-10T04:09:55.990Z,1003.59
2022-10-10T04:10:55.981Z,1003.59
2022-10-10T04:11:55.980Z,1003.56
2022-10-10T04:12:55.971Z,1003.57
2022-10-10T04:13:55.959Z,1003.57
2022-10-10T04:14:55.940Z,1003.52
2022-10-10T04:15:55.946Z,1003.53
2022-10-10T04:16:55.921Z,1003.48
2022-10-10T04:17:55.920Z,1003.46
2022-10-10T04:18:55.910Z,1003.45
2022-10-10T04:19:55.929Z,1003.43
2022-10-10T04:20:55.880Z,1003.4
2022-10-10T04:21:55.879Z,1003.37
2022-10-10T04:22:55.877Z,1003.37
2022-10-10T04:23:55.844Z,1003.36
2022-10-10T04:24:55.840Z,1003.39
2022-10-10T04:25:55.827Z,1003.36
2022-10-10T04:26:55.819Z,1003.4
2022-10-10T04:27:55.821Z,1003.41
2022-10-10T04:28:55.797Z,1003.37
2022-10-10T04:29:55.779Z,1003.41
2022-10-10T04:30:55.768Z,1003.37
2022-10-10T04:32:07.105Z,1003.32
2022-10-10T04:32:55.765Z,1003.37
2022-10-10T04:33:55.782Z,1003.37
2022-10-10T04:34:55.803Z,1003.38
2022-10-10T04:35:55.722Z,1003.34
2022-10-10T04:36:55.713Z,1003.31
2022-10-10T04:37:55.713Z,1003.29
2022-10-10T04:38:55.692Z,1003.25
2022-10-10T04:39:55.685Z,1003.31
2022-10-10T04:40:55.705Z,1003.34
2022-10-10T04:41:55.738Z,1003.27
2022-10-10T04:42:55.667Z,1003.21
2022-10-10T04:43:55.665Z,1003.26
2022-10-10T04:44:55.627Z,1003.29
2022-10-10T04:45:55.626Z,1003.3
2022-10-10T04:46:55.607Z,1003.22
2022-10-10T04:47:55.598Z,1003.26
2022-10-10T04:49:03.409Z,1003.27
2022-10-10T04:49:55.610Z,1003.26
2022-10-10T04:50:55.572Z,1003.24
2022-10-10T04:51:55.569Z,1003.24
2022-10-10T04:52:55.577Z,1003.24
2022-10-10T04:53:55.679Z,1003.21
2022-10-10T04:55:03.249Z,1003.24
2022-10-10T04:57:07.300Z,1003.2
2022-10-10T04:58:07.260Z,1003.28
2022-10-10T04:59:07.246Z,1003.26
2022-10-10T05:00:07.274Z,1003.22
2022-10-10T05:01:07.240Z,1003.24
2022-10-10T05:02:07.218Z,1003.22
2022-10-10T05:03:07.201Z,1003.19
2022-10-10T05:04:07.192Z,1003.19
2022-10-10T05:05:07.190Z,1003.14
2022-10-10T05:06:07.189Z,1003.11
2022-10-10T05:07:07.159Z,1003.14
2022-10-10T05:08:07.158Z,1003.13
2022-10-10T05:09:07.150Z,1003.11
2022-10-10T05:10:07.137Z,1003.15
2022-10-10T05:11:07.119Z,1003.16
2022-10-10T05:12:07.147Z,1003.1
2022-10-10T05:13:08.099Z,1003.2
2022-10-10T05:14:07.149Z,1003.12
2022-10-10T05:15:07.085Z,1003.11
2022-10-10T05:16:07.104Z,1003.14
2022-10-10T05:17:07.081Z,1003.11
2022-10-10T05:18:07.045Z,1003.12
2022-10-10T05:19:07.032Z,1003.12
2022-10-10T05:20:07.028Z,1003.1
2022-10-10T05:21:07.046Z,1003.16
2022-10-10T05:22:07.010Z,1003.15
2022-10-10T05:23:07.031Z,1003.2
2022-10-10T05:24:07.032Z,1003.23
2022-10-10T05:25:07.008Z,1003.29
2022-10-10T05:26:06.974Z,1003.22
2022-10-10T05:27:06.974Z,1003.26
2022-10-10T05:28:07.001Z,1003.29
2022-10-10T05:29:06.930Z,1003.3
2022-10-10T05:30:06.946Z,1003.28
2022-10-10T05:31:06.933Z,1003.28
2022-10-10T05:32:06.958Z,1003.28
2022-10-10T05:33:07.916Z,1003.24
2022-10-10T05:34:06.973Z,1003.25
2022-10-10T05:35:06.902Z,1003.25
2022-10-10T05:36:06.936Z,1003.29
2022-10-10T05:37:06.875Z,1003.21
2022-10-10T05:38:06.836Z,1003.18
2022-10-10T05:39:06.855Z,1003.2
2022-10-10T05:40:06.895Z,1003.15
2022-10-10T05:41:06.817Z,1003.21
2022-10-10T05:42:06.812Z,1003.23
2022-10-10T05:43:06.785Z,1003.19
2022-10-10T05:44:06.796Z,1003.16
2022-10-10T05:45:06.767Z,1003.16
2022-10-10T05:46:06.787Z,1003.19
2022-10-10T05:47:06.882Z,1003.21
2022-10-10T05:48:06.817Z,1003.16
2022-10-10T05:49:06.760Z,1003.21
2022-10-10T05:50:06.720Z,1003.18
2022-10-10T05:51:06.707Z,1003.2
2022-10-10T05:52:06.827Z,1003.15
2022-10-10T05:53:06.685Z,1003.2
2022-10-10T05:54:06.695Z,1003.17
2022-10-10T05:55:06.694Z,1003.19
2022-10-10T05:56:06.649Z,1003.19
2022-10-10T05:57:06.647Z,1003.12
2022-10-10T05:58:06.642Z,1003.13
2022-10-10T05:59:06.642Z,1003.19
2022-10-10T06:00:07.617Z,1003.17
2022-10-10T06:01:06.615Z,1003.15
2022-10-10T06:02:06.595Z,1003.15
2022-10-10T06:03:06.606Z,1003.18
2022-10-10T06:04:06.579Z,1003.21
2022-10-10T06:05:06.571Z,1003.18
2022-10-10T06:06:06.600Z,1003.21
2022-10-10T06:07:06.548Z,1003.13
2022-10-10T06:08:06.539Z,1003.18
2022-10-10T06:09:06.530Z,1003.18
2022-10-10T06:10:06.509Z,1003.22
2022-10-10T06:11:06.504Z,1003.22
2022-10-10T06:12:06.504Z,1003.26
2022-10-10T06:13:06.492Z,1003.2
2022-10-10T06:14:06.477Z,1003.15
2022-10-10T06:15:06.465Z,1003.2
2022-10-10T06:16:07.454Z,1003.18
2022-10-10T06:17:06.472Z,1003.21
2022-10-10T06:18:06.980Z,1003.25
2022-10-10T06:19:06.451Z,1003.18
2022-10-10T06:20:06.499Z,1003.24
2022-10-10T06:21:06.438Z,1003.26
2022-10-10T06:22:06.409Z,1003.21
2022-10-10T06:23:06.377Z,1003.23
2022-10-10T06:24:06.362Z,1003.22
2022-10-10T06:25:06.405Z,1003.22
2022-10-10T06:26:06.345Z,1003.19
2022-10-10T06:27:06.347Z,1003.26
2022-10-10T06:28:06.333Z,1003.26
2022-10-10T06:29:06.343Z,1003.27
2022-10-10T06:30:06.323Z,1003.29
2022-10-10T06:31:06.345Z,1003.25
2022-10-10T06:32:06.365Z,1003.25
2022-10-10T06:33:07.751Z,1003.33
2022-10-10T06:34:06.302Z,1003.29
2022-10-10T06:35:06.331Z,1003.29
2022-10-10T06:36:07.277Z,1003.29
2022-10-10T06:37:06.321Z,1003.29
2022-10-10T06:38:06.217Z,1003.32
2022-10-10T06:39:06.256Z,1003.26
2022-10-10T06:40:06.260Z,1003.29
2022-10-10T06:41:06.322Z,1003.37
2022-10-10T06:42:06.196Z,1003.27
2022-10-10T06:43:06.196Z,1003.32
2022-10-10T06:44:06.154Z,1003.35
2022-10-10T06:45:06.163Z,1003.36
2022-10-10T06:46:06.136Z,1003.34
2022-10-10T06:47:06.121Z,1003.33
2022-10-10T06:48:06.112Z,1003.36
2022-10-10T06:49:06.150Z,1003.36
2022-10-10T06:50:06.092Z,1003.35
2022-10-10T06:51:06.103Z,1003.43
2022-10-10T06:52:06.080Z,1003.42
2022-10-10T06:53:06.094Z,1003.4
2022-10-10T06:54:06.987Z,1003.43
2022-10-10T06:55:07.038Z,1003.36
2022-10-10T06:56:06.077Z,1003.34
2022-10-10T06:57:06.019Z,1003.38
2022-10-10T06:58:06.104Z,1003.39
2022-10-10T06:59:06.011Z,1003.4
2022-10-10T07:00:06.012Z,1003.43
2022-10-10T07:01:06.121Z,1003.39
2022-10-10T07:02:06.013Z,1003.43
2022-10-10T07:03:06.033Z,1003.43
2022-10-10T07:04:05.985Z,1003.46
2022-10-10T07:05:05.959Z,1003.47
2022-10-10T07:06:05.936Z,1003.44
2022-10-10T07:07:05.971Z,1003.45
2022-10-10T07:08:06.000Z,1003.41
2022-10-10T07:09:05.894Z,1003.4
2022-10-10T07:10:05.881Z,1003.35
2022-10-10T07:11:05.928Z,1003.37
2022-10-10T07:12:05.863Z,1003.37
2022-10-10T07:13:05.892Z,1003.39
2022-10-10T07:14:05.888Z,1003.32
2022-10-10T07:15:05.848Z,1003.3
2022-10-10T07:16:05.919Z,1003.25
2022-10-10T07:17:05.860Z,1003.33
2022-10-10T07:18:05.939Z,1003.23
2022-10-10T07:19:06.811Z,1003.21
2022-10-10T07:20:05.865Z,1003.23
2022-10-10T07:21:05.776Z,1003.19
2022-10-10T07:22:05.807Z,1003.27
2022-10-10T07:23:05.781Z,1003.21
2022-10-10T07:24:05.757Z,1003.2
2022-10-10T07:25:05.730Z,1003.16
2022-10-10T07:26:05.717Z,1003.18
2022-10-10T07:27:05.722Z,1003.2
2022-10-10T07:28:05.691Z,1003.19
2022-10-10T07:29:05.801Z,1003.14
2022-10-10T07:30:05.675Z,1003.2
2022-10-10T07:31:05.663Z,1003.18
2022-10-10T07:32:05.724Z,1003.2
2022-10-10T07:33:05.685Z,1003.2
2022-10-10T07:34:05.661Z,1003.13
2022-10-10T07:35:05.653Z,1003.18
2022-10-10T07:36:05.724Z,1003.12
2022-10-10T07:37:05.735Z,1003.18
2022-10-10T07:38:05.637Z,1003.14
2022-10-10T07:39:06.666Z,1003.21
2022-10-10T07:40:05.637Z,1003.13
2022-10-10T07:41:05.578Z,1003.11
2022-10-10T07:42:05.607Z,1003.06
2022-10-10T07:43:05.606Z,1003.12
2022-10-10T07:44:05.572Z,1003.08
2022-10-10T07:45:05.540Z,1003.12
2022-10-10T07:46:05.523Z,1003.11
2022-10-10T07:47:05.518Z,1003.05
2022-10-10T07:48:05.487Z,1003.09
2022-10-10T07:49:05.519Z,1003.03
2022-10-10T07:50:05.472Z,1003.1
2022-10-10T07:51:05.447Z,1003.13
2022-10-10T07:52:05.507Z,1003.19
2022-10-10T07:53:05.486Z,1003.18
2022-10-10T07:54:05.452Z,1003.2
2022-10-10T07:55:05.491Z,1003.11
2022-10-10T07:56:05.460Z,1003.06
2022-10-10T07:57:05.422Z,1003.03
2022-10-10T07:58:06.065Z,1002.98
2022-10-10T07:59:05.446Z,1003.02
2022-10-10T08:00:05.412Z,1003.01
2022-10-10T08:01:05.363Z,1002.95
2022-10-10T08:02:05.372Z,1003
2022-10-10T08:03:05.347Z,1003.01
2022-10-10T08:04:05.336Z,1002.99
2022-10-10T08:05:05.435Z,1002.97
2022-10-10T08:06:05.399Z,1002.98
2022-10-10T08:07:05.375Z,1002.91
2022-10-10T08:08:05.356Z,1002.95
2022-10-10T08:09:05.319Z,1002.98
2022-10-10T08:10:05.349Z,1002.94
2022-10-10T08:11:06.394Z,1002.95
2022-10-10T08:12:05.272Z,1002.95
2022-10-10T08:13:05.369Z,1002.89
2022-10-10T08:14:05.210Z,1002.89
2022-10-10T08:15:05.207Z,1002.96
2022-10-10T08:16:05.223Z,1002.94
2022-10-10T08:17:05.194Z,1002.94
2022-10-10T08:18:05.209Z,1002.94
2022-10-10T08:19:05.171Z,1002.95
2022-10-10T08:20:05.177Z,1002.92
2022-10-10T08:21:05.172Z,1002.95
2022-10-10T08:22:05.135Z,1002.98
2022-10-10T08:23:05.165Z,1002.97
2022-10-10T08:24:05.124Z,1003.02
2022-10-10T08:25:05.340Z,1002.95
2022-10-10T08:26:05.091Z,1002.93
2022-10-10T08:27:05.092Z,1003.01
2022-10-10T08:28:05.066Z,1002.96
2022-10-10T08:29:05.045Z,1003.02
2022-10-10T08:30:05.038Z,1003.02
2022-10-10T08:31:05.030Z,1002.99
2022-10-10T08:32:05.037Z,1003.01
2022-10-10T08:33:05.038Z,1003.06
2022-10-10T08:34:04.989Z,1003.07
2022-10-10T08:35:04.989Z,1003.04
2022-10-10T08:36:04.974Z,1003.06
2022-10-10T08:37:04.970Z,1003.01
2022-10-10T08:38:05.007Z,1003.02
2022-10-10T08:39:04.945Z,1003.03
2022-10-10T08:40:04.950Z,1003.06
2022-10-10T08:41:04.935Z,1003.09
2022-10-10T08:42:04.968Z,1003.06
2022-10-10T08:43:04.902Z,1003.04
2022-10-10T08:44:04.882Z,1002.99
2022-10-10T08:45:04.879Z,1002.98
2022-10-10T08:46:04.891Z,1002.96
2022-10-10T08:47:04.860Z,1002.94
2022-10-10T08:48:04.932Z,1002.99
2022-10-10T08:49:04.854Z,1002.95
2022-10-10T08:50:04.822Z,1002.97
2022-10-10T08:51:05.031Z,1002.92
2022-10-10T08:52:04.822Z,1002.98
2022-10-10T08:53:04.788Z,1002.95
2022-10-10T08:54:04.777Z,1002.91
2022-10-10T08:55:04.775Z,1002.91
2022-10-10T08:56:04.763Z,1002.88
2022-10-10T08:57:04.759Z,1002.92
2022-10-10T08:58:04.739Z,1002.89
2022-10-10T08:59:04.731Z,1002.9
2022-10-10T09:00:04.719Z,1002.91
2022-10-10T09:01:04.754Z,1002.91
2022-10-10T09:02:04.718Z,1002.88
2022-10-10T09:03:04.719Z,1002.91
2022-10-10T09:04:04.695Z,1002.88
2022-10-10T09:05:04.670Z,1002.91
2022-10-10T09:06:04.655Z,1002.9
2022-10-10T09:07:04.651Z,1002.87
2022-10-10T09:08:04.664Z,1002.8
2022-10-10T09:09:04.619Z,1002.86
2022-10-10T09:10:04.611Z,1002.85
2022-10-10T09:11:04.618Z,1002.9
2022-10-10T09:12:04.587Z,1002.8
2022-10-10T09:13:04.576Z,1002.81
2022-10-10T09:14:05.007Z,1002.8
2022-10-10T09:15:04.568Z,1002.81
2022-10-10T09:16:04.578Z,1002.82
2022-10-10T09:17:04.536Z,1002.82
2022-10-10T09:18:04.528Z,1002.82
2022-10-10T09:19:04.516Z,1002.78
2022-10-10T09:20:04.503Z,1002.83
2022-10-10T09:21:04.493Z,1002.73
2022-10-10T09:22:04.649Z,1002.8
2022-10-10T09:23:04.474Z,1002.82
2022-10-10T09:24:04.461Z,1002.79
2022-10-10T09:25:04.456Z,1002.75
2022-10-10T09:26:04.448Z,1002.79
2022-10-10T09:27:04.434Z,1002.8
2022-10-10T09:28:04.423Z,1002.87
2022-10-10T09:29:04.419Z,1002.8
2022-10-10T09:30:04.398Z,1002.86
2022-10-10T09:31:04.391Z,1002.77
2022-10-10T09:32:04.380Z,1002.83
2022-10-10T09:33:04.368Z,1002.83
2022-10-10T09:34:04.377Z,1002.8
2022-10-10T09:35:04.361Z,1002.77
2022-10-10T09:36:04.338Z,1002.79
2022-10-10T09:37:04.332Z,1002.83
2022-10-10T09:38:04.322Z,1002.84
2022-10-10T09:39:04.347Z,1002.82
2022-10-10T09:40:04.296Z,1002.81
2022-10-10T09:41:04.288Z,1002.85
2022-10-10T09:42:04.286Z,1002.87
2022-10-10T09:43:04.276Z,1002.87
2022-10-10T09:44:04.250Z,1002.86
2022-10-10T09:45:04.246Z,1002.85
2022-10-10T09:46:04.260Z,1002.86
2022-10-10T09:47:04.221Z,1002.7
2022-10-10T09:48:04.275Z,1002.77
2022-10-10T09:49:04.197Z,1002.76
2022-10-10T09:51:04.189Z,1002.73
2022-10-10T09:52:04.168Z,1002.68
2022-10-10T09:53:04.160Z,1002.75
2022-10-10T09:54:04.182Z,1002.72
2022-10-10T09:55:04.161Z,1002.73
2022-10-10T09:56:04.126Z,1002.74
2022-10-10T09:57:04.138Z,1002.71
2022-10-10T09:58:04.102Z,1002.71
2022-10-10T09:59:04.109Z,1002.7
2022-10-10T10:00:04.084Z,1002.64
2022-10-10T10:01:04.069Z,1002.66
2022-10-10T10:02:04.062Z,1002.63
2022-10-10T10:03:04.052Z,1002.66
2022-10-10T10:04:04.038Z,1002.67
2022-10-10T10:05:04.034Z,1002.74
2022-10-10T10:06:04.018Z,1002.74
2022-10-10T10:07:04.001Z,1002.72
2022-10-10T10:08:04.003Z,1002.76
2022-10-10T10:09:04.048Z,1002.76
2022-10-10T10:10:03.978Z,1002.79
2022-10-10T10:11:03.964Z,1002.77
2022-10-10T10:12:03.965Z,1002.79
2022-10-10T10:13:03.936Z,1002.78
2022-10-10T10:14:03.927Z,1002.79
2022-10-10T10:15:03.919Z,1002.79
2022-10-10T10:16:03.901Z,1002.83
2022-10-10T10:17:03.920Z,1002.85
2022-10-10T10:18:03.909Z,1002.8
2022-10-10T10:19:03.876Z,1002.89
2022-10-10T10:20:03.902Z,1002.82
2022-10-10T10:21:03.858Z,1002.85
2022-10-10T10:22:03.836Z,1002.87
2022-10-10T10:23:03.848Z,1002.92
2022-10-10T10:24:03.815Z,1002.9
2022-10-10T10:25:03.813Z,1002.94
2022-10-10T10:26:03.806Z,1002.9
2022-10-10T10:27:03.783Z,1002.91
2022-10-10T10:28:03.775Z,1002.83
2022-10-10T10:29:03.773Z,1002.83
2022-10-10T10:30:03.768Z,1002.81
2022-10-10T10:31:03.739Z,1002.8
2022-10-10T10:32:03.734Z,1002.78
2022-10-10T10:33:03.738Z,1002.8
2022-10-10T10:34:03.708Z,1002.77
2022-10-10T10:35:03.700Z,1002.86
2022-10-10T10:36:03.687Z,1002.91
2022-10-10T10:37:03.680Z,1002.85
2022-10-10T10:38:03.671Z,1002.85
2022-10-10T10:39:03.656Z,1002.86
2022-10-10T10:40:03.645Z,1002.9
2022-10-10T10:41:03.643Z,1002.91
2022-10-10T10:42:03.627Z,1002.97
2022-10-10T10:43:03.616Z,1002.97
2022-10-10T10:44:03.627Z,1002.97
2022-10-10T10:45:03.591Z,1002.95
2022-10-10T10:46:03.588Z,1002.92
2022-10-10T10:47:03.574Z,1002.99
2022-10-10T10:48:03.568Z,1002.91
2022-10-10T10:49:03.585Z,1002.88
2022-10-10T10:50:03.567Z,1002.95
2022-10-10T10:51:03.530Z,1002.92
2022-10-10T10:52:03.554Z,1002.94
2022-10-10T10:53:03.511Z,1002.99
2022-10-10T10:54:03.500Z,1003.11
2022-10-10T10:55:03.503Z,1003.15
2022-10-10T10:56:03.488Z,1003.06
2022-10-10T10:57:03.472Z,1003.08
2022-10-10T10:58:03.460Z,1003.08
2022-10-10T10:59:03.520Z,1003.06
2022-10-10T11:00:03.436Z,1003.1
2022-10-10T11:01:03.431Z,1003.19
2022-10-10T11:02:03.420Z,1003.1
2022-10-10T11:03:03.406Z,1003.16
2022-10-10T11:04:03.401Z,1003.15
2022-10-10T11:05:03.393Z,1003.18
2022-10-10T11:06:11.063Z,1003.15
2022-10-10T11:07:03.379Z,1003.17
2022-10-10T11:08:03.351Z,1003.12
2022-10-10T11:09:03.357Z,1003.18
2022-10-10T11:10:03.338Z,1003.2
2022-10-10T11:11:03.443Z,1003.16
2022-10-10T11:12:03.311Z,1003.2
2022-10-10T11:13:03.311Z,1003.24
2022-10-10T11:14:03.293Z,1003.19
2022-10-10T11:15:03.345Z,1003.21
2022-10-10T11:16:03.270Z,1003.21
2022-10-10T11:17:03.280Z,1003.18
2022-10-10T11:18:03.251Z,1003.2
2022-10-10T11:19:03.254Z,1003.11
2022-10-10T11:20:03.231Z,1003.11
2022-10-10T11:21:03.220Z,1003.1
2022-10-10T11:22:03.216Z,1003.09
2022-10-10T11:23:03.199Z,1003.1
2022-10-10T11:24:03.220Z,1003.14
2022-10-10T11:25:03.180Z,1003.1
2022-10-10T11:26:03.180Z,1003.08
2022-10-10T11:27:03.161Z,1003.14
2022-10-10T11:28:03.150Z,1003.07
2022-10-10T11:29:03.140Z,1003.08
2022-10-10T11:30:03.165Z,1003.06
2022-10-10T11:31:03.121Z,1003.06
2022-10-10T11:32:03.121Z,1003.24
2022-10-10T11:33:03.097Z,1003.18
2022-10-10T11:34:03.099Z,1003.19
2022-10-10T11:35:03.107Z,1003.17
2022-10-10T11:36:03.073Z,1003.18
2022-10-10T11:37:03.058Z,1003.22
2022-10-10T11:38:03.055Z,1003.24
2022-10-10T11:39:03.062Z,1003.26
2022-10-10T11:40:03.033Z,1003.24
2022-10-10T11:41:03.024Z,1003.23
2022-10-10T11:42:03.010Z,1003.08
2022-10-10T11:43:03.032Z,1003.2
2022-10-10T11:44:02.990Z,1002.96
2022-10-10T11:45:02.984Z,1003.07
2022-10-10T11:46:03.003Z,1003.11
2022-10-10T11:47:02.967Z,1003.12
2022-10-10T11:48:02.980Z,1003.16
2022-10-10T11:49:02.979Z,1003.02
2022-10-10T11:50:03.077Z,1002.99
2022-10-10T11:51:02.930Z,1003.01
2022-10-10T11:52:03.208Z,1003.11
2022-10-10T11:53:02.912Z,1002.91
2022-10-10T11:54:02.920Z,1002.91
2022-10-10T11:55:02.886Z,1002.9
2022-10-10T11:56:02.872Z,1002.86
2022-10-10T11:57:02.895Z,1002.86
2022-10-10T11:58:02.875Z,1003.03
2022-10-10T11:59:02.839Z,1003.05
2022-10-10T12:00:02.832Z,1003.17
2022-10-10T12:01:02.823Z,1003.06
2022-10-10T12:02:02.812Z,1002.96
2022-10-10T12:03:02.812Z,1002.96
2022-10-10T12:04:02.791Z,1002.89
2022-10-10T12:05:02.787Z,1002.86
2022-10-10T12:06:02.786Z,1003
2022-10-10T12:07:02.760Z,1002.95
2022-10-10T12:08:02.751Z,1002.89
2022-10-10T12:09:02.739Z,1002.92
2022-10-10T12:10:02.732Z,1002.79
2022-10-10T12:11:02.719Z,1002.88